createdAt,value
2019-04-26T00:00:02.332Z,76.27
2019-04-26T00:01:00.906Z,76.56
2019-04-26T00:01:59.455Z,75.89
2019-04-26T00:02:58.078Z,75.89
2019-04-26T00:05:05.816Z,75.98
2019-04-26T00:07:46.427Z,75.98
2019-04-26T00:08:45.019Z,75.98
2019-04-26T00:09:43.593Z,75.89
2019-04-26T00:10:42.167Z,75.7
2019-04-26T00:11:40.706Z,75.02
2019-04-26T00:12:39.274Z,74.77
2019-04-26T00:13:37.827Z,74.87
2019-04-26T00:14:36.369Z,74.97
2019-04-26T00:15:34.932Z,74.77
2019-04-26T00:16:33.465Z,74.77
2019-04-26T00:17:32.279Z,74.87
2019-04-26T00:18:31.058Z,74.77
2019-04-26T00:19:29.618Z,74.97
2019-04-26T00:20:28.304Z,74.87
2019-04-26T00:21:26.860Z,74.49
2019-04-26T00:22:25.410Z,74.87
2019-04-26T00:23:24.018Z,74.49
2019-04-26T00:24:22.733Z,74.4
2019-04-26T00:25:21.376Z,74.84
2019-04-26T00:26:21.763Z,74.93
2019-04-26T00:27:19.337Z,75.79
2019-04-26T00:28:18.700Z,76.37
2019-04-26T00:29:16.877Z,76.42
2019-04-26T00:30:15.262Z,76.71
2019-04-26T00:31:13.832Z,77.38
2019-04-26T00:32:13.219Z,77.67
2019-04-26T00:33:12.330Z,78.24
2019-04-26T00:34:09.556Z,77.67
2019-04-26T00:35:08.104Z,78.05
2019-04-26T00:36:06.664Z,78.05
2019-04-26T00:37:05.249Z,77.95
2019-04-26T00:38:03.824Z,77.57
2019-04-26T00:39:02.632Z,77.57
2019-04-26T00:40:01.201Z,77.38
2019-04-26T00:40:59.782Z,76.71
2019-04-26T00:41:58.449Z,76.46
2019-04-26T00:42:57.629Z,76.65
2019-04-26T00:43:55.651Z,75.79
2019-04-26T00:44:54.226Z,75.79
2019-04-26T00:45:52.818Z,75.98
2019-04-26T00:46:51.386Z,75.41
2019-04-26T00:47:50.403Z,75.6
2019-04-26T00:48:48.990Z,75.89
2019-04-26T00:49:47.534Z,75.89
2019-04-26T00:50:46.223Z,75.51
2019-04-26T00:51:44.908Z,75.7
2019-04-26T00:52:43.532Z,76.56
2019-04-26T00:53:42.057Z,76.65
2019-04-26T00:54:40.620Z,76.62
2019-04-26T00:55:39.189Z,77.38
2019-04-26T00:56:37.832Z,77.67
2019-04-26T00:57:36.562Z,77.09
2019-04-26T00:58:35.137Z,77.48
2019-04-26T00:59:33.680Z,77.51
2019-04-26T01:00:32.336Z,77.57
2019-04-26T01:01:30.956Z,77.86
2019-04-26T01:02:29.484Z,77.67
2019-04-26T01:03:28.047Z,77.86
2019-04-26T01:04:26.603Z,78.05
2019-04-26T01:05:25.316Z,78.34
2019-04-26T01:06:23.728Z,78.14
2019-04-26T01:07:23.223Z,77.67
2019-04-26T01:08:21.290Z,77.86
2019-04-26T01:09:19.603Z,77.61
2019-04-26T01:10:19.547Z,76.84
2019-04-26T01:11:17.658Z,76.84
2019-04-26T01:12:16.752Z,76.65
2019-04-26T01:13:14.202Z,76.56
2019-04-26T01:14:12.813Z,75.83
2019-04-26T01:15:11.374Z,75.54
2019-04-26T01:16:10.090Z,75.89
2019-04-26T01:17:08.714Z,76.08
2019-04-26T01:18:07.274Z,76.56
2019-04-26T01:19:05.809Z,76.46
2019-04-26T01:20:04.566Z,76.65
2019-04-26T01:21:03.100Z,76.84
2019-04-26T01:22:01.656Z,76.37
2019-04-26T01:23:00.268Z,76.84
2019-04-26T01:23:58.845Z,76.75
2019-04-26T01:24:57.388Z,76.75
2019-04-26T01:25:55.934Z,76.56
2019-04-26T01:28:36.218Z,76.37
2019-04-26T01:29:34.786Z,76.27
2019-04-26T01:30:33.336Z,76.65
2019-04-26T01:31:31.889Z,76.65
2019-04-26T01:32:30.660Z,77.42
2019-04-26T01:33:29.216Z,77.23
2019-04-26T01:34:28.247Z,76.75
2019-04-26T01:35:26.332Z,77.04
2019-04-26T01:36:24.977Z,76.79
2019-04-26T01:37:24.443Z,76.69
2019-04-26T01:38:22.083Z,76.69
2019-04-26T01:39:21.206Z,76.12
2019-04-26T01:40:19.808Z,76.4
2019-04-26T01:41:17.777Z,75.73
2019-04-26T01:42:16.547Z,76.21
2019-04-26T01:43:15.121Z,76.12
2019-04-26T01:44:13.701Z,76.02
2019-04-26T01:45:12.472Z,75.83
2019-04-26T01:46:11.059Z,75.83
2019-04-26T01:47:09.626Z,76.4
2019-04-26T01:48:08.189Z,76.79
2019-04-26T01:49:06.722Z,77.26
2019-04-26T01:50:05.256Z,77.08
2019-04-26T01:51:03.829Z,76.89
2019-04-26T01:52:02.427Z,76.5
2019-04-26T01:53:00.954Z,76.4
2019-04-26T01:53:59.541Z,76.79
2019-04-26T01:54:58.265Z,76.79
2019-04-26T01:55:56.898Z,76.79
2019-04-26T01:56:55.453Z,77.04
2019-04-26T01:57:54.179Z,76.98
2019-04-26T01:58:52.820Z,77.51
2019-04-26T01:59:51.392Z,76.98
2019-04-26T02:00:49.946Z,76.89
2019-04-26T02:01:48.486Z,77.75
2019-04-26T02:02:47.032Z,76.89
2019-04-26T02:03:45.565Z,76.98
2019-04-26T02:04:44.384Z,76.69
2019-04-26T02:05:43.037Z,76.79
2019-04-26T02:06:41.626Z,76.69
2019-04-26T02:07:40.325Z,76.89
2019-04-26T02:08:38.982Z,76.69
2019-04-26T02:09:37.525Z,76.98
2019-04-26T02:10:36.089Z,76.98
2019-04-26T02:11:34.676Z,77.46
2019-04-26T02:12:33.277Z,77.26
2019-04-26T02:13:33.045Z,77.08
2019-04-26T02:14:31.057Z,76.89
2019-04-26T02:15:29.332Z,77.08
2019-04-26T02:16:29.076Z,76.69
2019-04-26T02:17:27.269Z,76.79
2019-04-26T02:18:25.497Z,76.69
2019-04-26T02:19:24.662Z,76.6
2019-04-26T02:20:23.192Z,76.69
2019-04-26T02:21:20.850Z,76.89
2019-04-26T02:22:19.408Z,76.79
2019-04-26T02:23:18.062Z,76.6
2019-04-26T02:24:16.781Z,76.21
2019-04-26T02:25:15.384Z,76.15
2019-04-26T02:26:14.034Z,75.87
2019-04-26T02:27:12.755Z,76.4
2019-04-26T02:28:11.317Z,76.4
2019-04-26T02:29:10.829Z,76.02
2019-04-26T02:30:08.461Z,75.83
2019-04-26T02:31:06.985Z,76.06
2019-04-26T02:32:05.575Z,75.64
2019-04-26T02:33:04.086Z,75.68
2019-04-26T02:34:02.625Z,75.35
2019-04-26T02:35:01.177Z,75.64
2019-04-26T02:35:59.728Z,75.29
2019-04-26T02:36:59.096Z,76.06
2019-04-26T02:37:57.054Z,75.83
2019-04-26T02:38:55.618Z,75.96
2019-04-26T02:39:54.356Z,75.16
2019-04-26T02:40:53.025Z,74.82
2019-04-26T02:41:51.641Z,74.62
2019-04-26T02:42:50.497Z,75.83
2019-04-26T02:43:49.122Z,75.45
2019-04-26T02:44:47.627Z,75.45
2019-04-26T02:45:46.165Z,75.1
2019-04-26T02:46:44.831Z,74.77
2019-04-26T02:47:43.362Z,74.87
2019-04-26T02:48:41.924Z,75.07
2019-04-26T02:49:40.507Z,74.4
2019-04-26T02:50:39.144Z,74.43
2019-04-26T02:51:38.231Z,74.15
2019-04-26T02:52:37.547Z,74.24
2019-04-26T02:53:36.547Z,74.52
2019-04-26T02:54:34.648Z,74.52
2019-04-26T02:55:36.694Z,73.95
2019-04-26T02:56:32.110Z,73.57
2019-04-26T02:57:30.976Z,73.86
2019-04-26T02:58:28.265Z,73.86
2019-04-26T02:59:28.442Z,73.66
2019-04-26T03:00:25.136Z,74.15
2019-04-26T03:01:23.777Z,73.66
2019-04-26T03:02:22.450Z,73.66
2019-04-26T03:03:21.005Z,74.05
2019-04-26T03:04:19.563Z,73.76
2019-04-26T03:05:18.280Z,74.62
2019-04-26T03:06:16.930Z,74.33
2019-04-26T03:07:15.575Z,73.95
2019-04-26T03:08:14.247Z,73.86
2019-04-26T03:09:12.765Z,73.66
2019-04-26T03:10:11.296Z,74.15
2019-04-26T03:11:09.841Z,74.05
2019-04-26T03:12:08.396Z,74.05
2019-04-26T03:13:07.032Z,73.57
2019-04-26T03:14:05.614Z,73.57
2019-04-26T03:15:13.023Z,73.38
2019-04-26T03:16:02.694Z,73.76
2019-04-26T03:17:01.254Z,73.95
2019-04-26T03:17:59.846Z,73.86
2019-04-26T03:19:01.248Z,74.91
2019-04-26T03:20:00.637Z,74.62
2019-04-26T03:20:59.250Z,75.2
2019-04-26T03:21:57.801Z,76.15
2019-04-26T03:22:56.590Z,76.15
2019-04-26T03:23:58.410Z,76.15
2019-04-26T03:24:53.717Z,76.35
2019-04-26T03:25:52.376Z,76.15
2019-04-26T03:26:50.979Z,76.54
2019-04-26T03:27:49.530Z,76.35
2019-04-26T03:28:48.102Z,76.25
2019-04-26T03:29:46.773Z,75.87
2019-04-26T03:30:53.264Z,75.77
2019-04-26T03:31:54.158Z,75.77
2019-04-26T03:32:51.036Z,75.58
2019-04-26T03:33:53.480Z,76.15
2019-04-26T03:34:52.773Z,76.54
2019-04-26T03:35:56.266Z,76.35
2019-04-26T03:36:45.387Z,76.44
2019-04-26T03:37:44.449Z,76.79
2019-04-26T03:38:43.540Z,77.4
2019-04-26T03:39:42.817Z,76.15
2019-04-26T03:40:41.030Z,76.64
2019-04-26T03:41:40.261Z,77.11
2019-04-26T03:42:38.743Z,77.11
2019-04-26T03:43:36.774Z,77.31
2019-04-26T03:44:34.930Z,78.07
2019-04-26T03:45:32.982Z,77.88
2019-04-26T03:46:31.463Z,78.36
2019-04-26T03:47:30.276Z,78.27
2019-04-26T03:48:28.981Z,79.41
2019-04-26T03:49:27.532Z,79.8
2019-04-26T03:50:26.230Z,79.8
2019-04-26T03:51:24.883Z,80.66
2019-04-26T03:52:23.442Z,80.9
2019-04-26T03:53:21.978Z,81.1
2019-04-26T03:54:20.553Z,81.62
2019-04-26T03:55:19.130Z,81.9
2019-04-26T03:56:17.696Z,82.34
2019-04-26T03:57:16.458Z,82.73
2019-04-26T03:58:15.032Z,83.3
2019-04-26T03:59:13.674Z,84.3
2019-04-26T04:00:12.188Z,84.16
2019-04-26T04:01:10.906Z,83.97
2019-04-26T04:02:09.422Z,84.26
2019-04-26T04:03:07.967Z,83.59
2019-04-26T04:04:06.613Z,83.49
2019-04-26T04:05:05.202Z,83.59
2019-04-26T04:06:03.776Z,84.12
2019-04-26T04:07:04.513Z,85.41
2019-04-26T04:08:01.089Z,85.08
2019-04-26T04:08:59.642Z,86.7
2019-04-26T04:09:58.516Z,86.9
2019-04-26T04:10:57.197Z,87.08
2019-04-26T04:12:09.952Z,86.7
2019-04-26T04:12:54.292Z,87.08
2019-04-26T04:13:52.973Z,87.81
2019-04-26T04:14:51.403Z,88.76
2019-04-26T04:15:50.022Z,89.24
2019-04-26T04:16:49.023Z,89.72
2019-04-26T04:17:48.240Z,89.81
2019-04-26T04:18:45.790Z,89.58
2019-04-26T04:19:45.732Z,89.86
2019-04-26T04:20:44.477Z,89.48
2019-04-26T04:21:43.005Z,89.09
2019-04-26T04:22:41.650Z,88.57
2019-04-26T04:23:39.708Z,89.81
2019-04-26T04:24:39.039Z,89.81
2019-04-26T04:25:37.958Z,89.62
2019-04-26T04:26:35.050Z,89.62
2019-04-26T04:27:33.607Z,89.81
2019-04-26T04:28:32.342Z,90.2
2019-04-26T04:29:39.710Z,90.01
2019-04-26T04:30:29.536Z,89.86
2019-04-26T04:31:28.042Z,90.15
2019-04-26T04:32:26.615Z,90.96
2019-04-26T04:33:25.159Z,90.3
2019-04-26T04:34:23.739Z,90.1
2019-04-26T04:35:22.507Z,90.3
2019-04-26T04:36:21.087Z,91.25
2019-04-26T04:37:19.706Z,91.06
2019-04-26T04:38:18.303Z,91.73
2019-04-26T04:39:16.920Z,91.53
2019-04-26T04:40:15.584Z,91.44
2019-04-26T04:41:14.652Z,92.02
2019-04-26T04:42:13.308Z,93.07
2019-04-26T04:43:12.011Z,93.07
2019-04-26T04:44:10.612Z,93.07
2019-04-26T04:45:09.199Z,92.21
2019-04-26T04:46:07.872Z,93.26
2019-04-26T04:47:22.602Z,92.69
2019-04-26T04:48:04.870Z,92.88
2019-04-26T04:49:03.538Z,92.88
2019-04-26T04:50:02.085Z,93.07
2019-04-26T04:51:00.790Z,93.35
2019-04-26T04:51:59.354Z,93.07
2019-04-26T04:52:57.938Z,93.26
2019-04-26T04:53:56.722Z,93.16
2019-04-26T04:55:06.590Z,93.31
2019-04-26T04:55:53.820Z,93.84
2019-04-26T04:56:52.432Z,94.5
2019-04-26T04:57:52.255Z,93.74
2019-04-26T04:58:50.312Z,94.02
2019-04-26T04:59:48.978Z,93.84
2019-04-26T05:00:47.544Z,93.93
2019-04-26T05:01:46.298Z,94.31
2019-04-26T05:02:44.947Z,93.16
2019-04-26T05:03:43.862Z,92.88
2019-04-26T05:04:42.564Z,94.07
2019-04-26T05:05:40.588Z,94.74
2019-04-26T05:06:39.158Z,95.22
2019-04-26T05:07:37.808Z,95.32
2019-04-26T05:08:36.459Z,97.52
2019-04-26T05:09:35.121Z,97.61
2019-04-26T05:10:33.724Z,96.84
2019-04-26T05:11:32.269Z,97.52
2019-04-26T05:12:30.803Z,97.04
2019-04-26T05:13:29.329Z,96.47
2019-04-26T05:14:27.864Z,97.13
2019-04-26T05:15:26.696Z,97.8
2019-04-26T05:16:25.235Z,97.52
2019-04-26T05:17:23.809Z,98.47
2019-04-26T05:18:22.572Z,97.99
2019-04-26T05:19:21.239Z,98.95
2019-04-26T05:20:19.769Z,98.85
2019-04-26T05:21:18.315Z,99.43
2019-04-26T05:22:16.900Z,98.85
2019-04-26T05:23:15.449Z,99.19
2019-04-26T05:24:14.018Z,96.22
2019-04-26T05:25:12.553Z,96.42
2019-04-26T05:26:11.099Z,96.32
2019-04-26T05:27:09.740Z,97.47
2019-04-26T05:28:08.481Z,98.61
2019-04-26T05:29:07.173Z,97.04
2019-04-26T05:30:05.722Z,97.99
2019-04-26T05:31:04.292Z,98.47
2019-04-26T05:32:02.926Z,99.29
2019-04-26T05:33:01.511Z,99.99
2019-04-26T05:34:00.056Z,99.67
2019-04-26T05:34:58.650Z,98.04
2019-04-26T05:35:57.370Z,98.14
2019-04-26T05:36:56.676Z,97.71
2019-04-26T05:37:55.175Z,99.24
2019-04-26T05:38:53.274Z,99.99
2019-04-26T05:39:51.660Z,99.99
2019-04-26T05:40:51.429Z,99.86
2019-04-26T05:41:49.557Z,99.29
2019-04-26T05:42:48.343Z,98.52
2019-04-26T05:43:46.129Z,97.37
2019-04-26T05:44:44.754Z,97.75
2019-04-26T05:45:43.357Z,97.66
2019-04-26T05:46:41.916Z,97.95
2019-04-26T05:47:40.760Z,98.61
2019-04-26T05:48:39.317Z,96.42
2019-04-26T05:49:37.869Z,96.51
2019-04-26T05:50:36.625Z,96.22
2019-04-26T05:51:35.238Z,98.43
2019-04-26T05:52:33.886Z,98.52
2019-04-26T05:53:32.439Z,97.56
2019-04-26T05:54:31.019Z,97.61
2019-04-26T05:55:29.558Z,97.23
2019-04-26T05:56:28.141Z,99.05
2019-04-26T05:57:26.746Z,97.8
2019-04-26T05:58:25.317Z,94.84
2019-04-26T05:59:23.892Z,95.51
2019-04-26T06:00:22.819Z,97.42
2019-04-26T06:01:21.373Z,99.99
2019-04-26T06:02:19.929Z,99.99
2019-04-26T06:03:18.519Z,99.99
2019-04-26T06:04:17.086Z,99.99
2019-04-26T06:05:15.721Z,99.99
2019-04-26T06:06:14.543Z,99.99
2019-04-26T06:07:13.141Z,99.99
2019-04-26T06:08:11.702Z,99.99
2019-04-26T06:09:10.386Z,99.99
2019-04-26T06:10:09.047Z,99.99
2019-04-26T06:11:07.598Z,99.99
2019-04-26T06:12:06.129Z,99.99
2019-04-26T06:13:04.736Z,99.99
2019-04-26T06:14:03.302Z,99.99
2019-04-26T06:15:01.868Z,99.99
2019-04-26T06:16:00.700Z,99.99
2019-04-26T06:16:59.291Z,99.99
2019-04-26T06:17:57.790Z,99.99
2019-04-26T06:18:57.299Z,99.99
2019-04-26T06:19:55.238Z,99.99
2019-04-26T06:20:54.084Z,99.99
2019-04-26T06:21:52.442Z,99.99
2019-04-26T06:22:53.608Z,99.99
2019-04-26T06:23:49.371Z,99.99
2019-04-26T06:24:47.933Z,99.99
2019-04-26T06:25:46.767Z,99.99
2019-04-26T06:26:45.363Z,99.99
2019-04-26T06:27:43.925Z,99.99
2019-04-26T06:28:42.789Z,99.99
2019-04-26T06:29:41.343Z,99.99
2019-04-26T06:30:45.434Z,99.99
2019-04-26T06:31:38.487Z,99.99
2019-04-26T06:32:37.150Z,99.99
2019-04-26T06:33:35.622Z,99.99
2019-04-26T06:34:34.275Z,99.99
2019-04-26T06:35:32.809Z,99.99
2019-04-26T06:36:31.321Z,99.99
2019-04-26T06:37:29.856Z,99.99
2019-04-26T06:38:28.626Z,99.99
2019-04-26T06:39:27.133Z,99.99
2019-04-26T06:40:25.682Z,98
2019-04-26T06:41:24.367Z,98.71
2019-04-26T06:44:04.761Z,99.99
2019-04-26T06:45:03.201Z,99.99
2019-04-26T06:46:02.653Z,99.99
2019-04-26T06:47:00.403Z,99.99
2019-04-26T06:47:59.042Z,99.99
2019-04-26T06:48:57.583Z,99.99
2019-04-26T06:49:57.620Z,99.99
2019-04-26T06:50:54.935Z,99.99
2019-04-26T06:51:53.474Z,99.99
2019-04-26T06:52:52.051Z,99.99
2019-04-26T06:53:50.710Z,99.99
2019-04-26T06:54:49.411Z,99.99
2019-04-26T06:55:48.023Z,99.99
2019-04-26T06:56:46.790Z,99.99
2019-04-26T06:57:45.322Z,99.99
2019-04-26T06:58:43.854Z,99.99
2019-04-26T06:59:42.583Z,99.99
2019-04-26T07:00:41.161Z,99.99
2019-04-26T07:01:39.756Z,99.99
2019-04-26T07:02:38.350Z,99.99
2019-04-26T07:03:36.938Z,99.99
2019-04-26T07:04:35.462Z,99.99
2019-04-26T07:05:34.009Z,99.99
2019-04-26T07:06:35.017Z,99.99
2019-04-26T07:07:31.167Z,99.99
2019-04-26T07:08:29.710Z,99.99
2019-04-26T07:09:28.444Z,99.99
2019-04-26T07:10:27.152Z,99.99
2019-04-26T07:11:25.654Z,99.99
2019-04-26T07:12:24.349Z,99.99
2019-04-26T07:13:23.042Z,99.99
2019-04-26T07:14:21.628Z,99.99
2019-04-26T07:15:28.217Z,99.99
2019-04-26T07:16:22.950Z,99.99
2019-04-26T07:17:17.256Z,99.99
2019-04-26T07:18:15.838Z,98.91
2019-04-26T07:19:14.540Z,99.99
2019-04-26T07:20:13.102Z,99.99
2019-04-26T07:21:11.692Z,99.99
2019-04-26T07:22:10.945Z,99.99
2019-04-26T07:23:09.234Z,99.99
2019-04-26T07:24:08.454Z,99.99
2019-04-26T07:25:06.327Z,99.99
2019-04-26T07:26:05.820Z,99.99
2019-04-26T07:27:03.472Z,99.99
2019-04-26T07:28:04.288Z,99.99
2019-04-26T07:29:01.419Z,99.99
2019-04-26T07:30:01.427Z,99.99
2019-04-26T07:30:57.934Z,99.99
2019-04-26T07:31:56.622Z,99.99
2019-04-26T07:32:55.203Z,99.99
2019-04-26T07:33:53.761Z,99.99
2019-04-26T07:34:52.397Z,99.99
2019-04-26T07:35:50.959Z,99.99
2019-04-26T07:36:49.572Z,99.99
2019-04-26T07:37:48.101Z,99.99
2019-04-26T07:39:55.790Z,99.99
2019-04-26T07:40:54.347Z,99.99
2019-04-26T07:41:52.874Z,99.99
2019-04-26T07:42:51.453Z,99.99
2019-04-26T07:43:50.049Z,99.99
2019-04-26T07:44:48.696Z,98.33
2019-04-26T07:45:47.271Z,99.99
2019-04-26T07:46:45.836Z,98.96
2019-04-26T07:47:44.524Z,99.99
2019-04-26T07:48:43.095Z,99.15
2019-04-26T07:49:41.722Z,99.99
2019-04-26T07:50:40.339Z,99.99
2019-04-26T07:51:38.984Z,99.99
2019-04-26T07:52:37.539Z,99.99
2019-04-26T07:58:44.664Z,99.99
2019-04-26T07:59:43.236Z,99.99
2019-04-26T08:00:44.831Z,99.99
2019-04-26T08:01:40.489Z,99.99
2019-04-26T08:02:39.191Z,99.99
2019-04-26T08:03:37.755Z,99.99
2019-04-26T08:04:36.340Z,99.19
2019-04-26T08:08:16.658Z,99.43
2019-04-26T08:09:26.175Z,99.99
2019-04-26T08:10:14.631Z,99.99
2019-04-26T08:11:12.896Z,99.99
2019-04-26T08:12:12.103Z,99.99
2019-04-26T08:13:10.028Z,99.99
2019-04-26T08:14:08.550Z,99.99
2019-04-26T08:15:06.978Z,99.99
2019-04-26T08:16:06.675Z,99.99
2019-04-26T08:17:05.212Z,97.18
2019-04-26T08:18:03.834Z,99.63
2019-04-26T08:19:01.422Z,99.99
2019-04-26T08:19:59.986Z,99.24
2019-04-26T08:20:58.543Z,99.99
2019-04-26T08:22:11.380Z,97.9
2019-04-26T08:22:55.729Z,98.38
2019-04-26T08:23:56.409Z,98.96
2019-04-26T08:28:29.806Z,99.99
2019-04-26T08:29:29.800Z,99.99
2019-04-26T08:30:27.113Z,99.99
2019-04-26T08:31:27.443Z,99.99
2019-04-26T08:32:24.487Z,99.99
2019-04-26T08:33:23.031Z,99.99
2019-04-26T08:34:28.501Z,99.99
2019-04-26T08:36:18.957Z,99.99
2019-04-26T08:37:18.988Z,99.99
2019-04-26T08:38:22.064Z,99.99
2019-04-26T08:39:15.710Z,99.99
2019-04-26T08:40:14.416Z,99.99
2019-04-26T08:41:11.790Z,99.99
2019-04-26T08:42:17.970Z,99.99
2019-04-26T08:43:09.516Z,99.99
2019-04-26T08:44:08.526Z,99.99
2019-04-26T08:45:09.173Z,99.99
2019-04-26T08:46:04.763Z,99.99
2019-04-26T08:47:05.929Z,99.99
2019-04-26T08:48:01.971Z,99.99
2019-04-26T08:49:01.806Z,99.99
2019-04-26T08:49:59.293Z,99.99
2019-04-26T08:50:57.843Z,99.99
2019-04-26T08:51:57.475Z,99.99
2019-04-26T08:52:54.963Z,99.99
2019-04-26T08:53:53.534Z,99.99
2019-04-26T08:54:52.143Z,99.99
2019-04-26T08:55:50.764Z,99.99
2019-04-26T08:56:49.408Z,99.99
2019-04-26T08:57:47.977Z,99.99
2019-04-26T08:58:46.750Z,99.99
2019-04-26T08:59:45.281Z,99.99
2019-04-26T09:00:43.961Z,99.99
2019-04-26T09:01:45.439Z,99.29
2019-04-26T09:02:41.118Z,99.99
2019-04-26T09:03:39.686Z,99.99
2019-04-26T09:04:38.583Z,99.99
2019-04-26T09:05:37.247Z,99.99
2019-04-26T09:06:35.826Z,99.99
2019-04-26T09:07:36.346Z,97.95
2019-04-26T09:08:33.169Z,98.82
2019-04-26T09:09:32.394Z,99.99
2019-04-26T09:10:30.462Z,99.99
2019-04-26T09:11:33.295Z,99.99
2019-04-26T09:12:27.557Z,99.99
2019-04-26T09:13:26.269Z,99.99
2019-04-26T09:14:25.061Z,99.99
2019-04-26T09:15:23.604Z,99.99
2019-04-26T09:16:22.161Z,99.99
2019-04-26T09:17:20.768Z,99.99
2019-04-26T09:18:19.385Z,95.26
2019-04-26T09:19:18.004Z,95.75
2019-04-26T09:20:27.978Z,95.65
2019-04-26T09:21:17.348Z,95.56
2019-04-26T09:22:13.736Z,95.22
2019-04-26T09:23:12.396Z,96.22
2019-04-26T09:24:11.087Z,95.75
2019-04-26T09:25:09.668Z,96.66
2019-04-26T09:26:08.484Z,96.66
2019-04-26T09:27:06.932Z,97.23
2019-04-26T09:28:05.502Z,96.84
2019-04-26T09:29:04.025Z,96.47
2019-04-26T09:30:04.862Z,97.23
2019-04-26T09:31:01.141Z,97.18
2019-04-26T09:31:59.676Z,96.89
2019-04-26T09:33:01.672Z,95.65
2019-04-26T09:33:56.953Z,95.36
2019-04-26T09:34:55.495Z,95.26
2019-04-26T09:35:54.108Z,96.7
2019-04-26T09:36:52.927Z,94.64
2019-04-26T09:37:51.493Z,94.64
2019-04-26T09:38:50.020Z,93.59
2019-04-26T09:39:48.740Z,93.54
2019-04-26T09:40:47.209Z,91.52
2019-04-26T09:41:45.751Z,92.29
2019-04-26T09:42:44.355Z,91.33
2019-04-26T09:43:43.039Z,90.56
2019-04-26T09:44:42.975Z,91.05
2019-04-26T09:45:40.470Z,91.81
2019-04-26T09:46:39.193Z,90.85
2019-04-26T09:47:37.772Z,91.33
2019-04-26T09:50:18.095Z,91.24
2019-04-26T09:52:58.421Z,90.85
2019-04-26T09:57:15.803Z,90.52
2019-04-26T10:13:38.856Z,89.36
2019-04-26T10:14:37.456Z,86.05
2019-04-26T10:17:20.565Z,88.73
2019-04-26T10:19:20.135Z,88.54
2019-04-26T10:20:18.854Z,89.02
2019-04-26T10:21:17.407Z,90.08
2019-04-26T10:22:15.945Z,88.97
2019-04-26T10:23:14.546Z,87.43
2019-04-26T10:24:13.196Z,88.78
2019-04-26T10:25:16.448Z,87.43
2019-04-26T10:26:10.334Z,87.1
2019-04-26T10:27:09.011Z,87.05
2019-04-26T10:28:07.585Z,87.05
2019-04-26T10:29:06.262Z,86.29
2019-04-26T10:30:08.805Z,88.31
2019-04-26T10:31:03.741Z,88.59
2019-04-26T10:32:02.289Z,90.08
2019-04-26T10:33:02.108Z,89.6
2019-04-26T10:33:59.358Z,87.77
2019-04-26T10:34:57.950Z,88.54
2019-04-26T10:35:57.726Z,87.77
2019-04-26T10:36:56.820Z,86
2019-04-26T10:37:53.663Z,87.87
2019-04-26T10:38:54.403Z,87.49
2019-04-26T10:39:51.025Z,87.54
2019-04-26T10:40:49.568Z,85.04
2019-04-26T10:41:48.273Z,87.82
2019-04-26T10:42:46.991Z,86.96
2019-04-26T10:43:45.530Z,85.86
2019-04-26T10:44:44.078Z,87.11
2019-04-26T10:45:45.425Z,88.45
2019-04-26T10:46:41.309Z,87.54
2019-04-26T10:47:39.990Z,87.63
2019-04-26T10:48:41.210Z,86.19
2019-04-26T10:49:37.227Z,86.48
2019-04-26T10:50:35.787Z,86.77
2019-04-26T10:51:34.491Z,87.19
2019-04-26T10:52:33.070Z,87.01
2019-04-26T10:53:31.943Z,86.81
2019-04-26T10:54:30.214Z,86.52
2019-04-26T10:55:28.755Z,86.33
2019-04-26T10:56:27.312Z,85.85
2019-04-26T10:57:25.877Z,83.93
2019-04-26T10:58:24.596Z,85.47
2019-04-26T10:59:23.210Z,84.75
2019-04-26T11:00:21.746Z,85.75
2019-04-26T11:01:20.338Z,85.47
2019-04-26T11:02:19.070Z,84.6
2019-04-26T11:03:17.607Z,84.85
2019-04-26T11:04:16.155Z,85.52
2019-04-26T11:05:18.204Z,85.91
2019-04-26T11:06:13.340Z,84.18
2019-04-26T11:07:11.889Z,85.52
2019-04-26T11:08:10.419Z,85.33
2019-04-26T11:09:09.028Z,85.24
2019-04-26T11:10:07.577Z,84.85
2019-04-26T11:11:06.294Z,84.37
2019-04-26T11:12:04.988Z,83.8
2019-04-26T11:13:03.552Z,84.47
2019-04-26T11:14:02.299Z,84.52
2019-04-26T11:15:00.994Z,86.34
2019-04-26T11:16:02.335Z,86.87
2019-04-26T11:16:58.101Z,85.62
2019-04-26T11:17:56.650Z,85.62
2019-04-26T11:18:57.140Z,86.1
2019-04-26T11:19:53.798Z,85.33
2019-04-26T11:20:52.649Z,86.19
2019-04-26T11:21:54.714Z,84.56
2019-04-26T11:22:49.863Z,84.37
2019-04-26T11:23:49.973Z,84.71
2019-04-26T11:24:49.994Z,86.87
2019-04-26T11:25:45.706Z,86.87
2019-04-26T11:26:44.240Z,86.19
2019-04-26T11:27:44.003Z,86.34
2019-04-26T11:28:42.037Z,86.15
2019-04-26T11:29:39.980Z,86.77
2019-04-26T11:30:38.750Z,86.1
2019-04-26T11:31:37.272Z,85.91
2019-04-26T11:32:36.705Z,85.48
2019-04-26T11:33:44.365Z,86.05
2019-04-26T11:34:33.394Z,86.72
2019-04-26T11:37:17.765Z,85.96
2019-04-26T11:38:14.230Z,84.91
2019-04-26T11:39:12.984Z,86.15
2019-04-26T11:40:14.444Z,86.63
2019-04-26T11:41:10.250Z,85.48
2019-04-26T11:42:11.707Z,85.28
2019-04-26T11:43:07.436Z,86.11
2019-04-26T11:44:06.059Z,86.97
2019-04-26T11:45:06.148Z,86.97
2019-04-26T11:46:04.353Z,86.3
2019-04-26T11:47:02.888Z,86.11
2019-04-26T11:48:03.167Z,86.97
2019-04-26T11:49:00.171Z,87.41
2019-04-26T11:49:57.978Z,88.94
2019-04-26T11:50:56.554Z,88.98
2019-04-26T11:51:58.471Z,88.12
2019-04-26T11:52:53.629Z,87.74
2019-04-26T11:53:52.260Z,87.26
2019-04-26T11:54:51.172Z,86.78
2019-04-26T11:55:49.503Z,87.07
2019-04-26T11:56:50.274Z,87.74
2019-04-26T11:57:47.430Z,87.55
2019-04-26T11:58:45.290Z,88.12
2019-04-26T11:59:43.825Z,88.51
2019-04-26T12:00:42.478Z,88.22
2019-04-26T12:01:41.981Z,88.41
2019-04-26T12:02:39.699Z,88.98
2019-04-26T12:03:38.227Z,86.88
2019-04-26T12:04:37.000Z,86.97
2019-04-26T12:05:35.544Z,88.31
2019-04-26T12:06:34.170Z,88.41
2019-04-26T12:07:32.808Z,88.45
2019-04-26T12:08:31.404Z,87.59
2019-04-26T12:09:29.984Z,85.96
2019-04-26T12:10:28.657Z,85.67
2019-04-26T12:11:34.019Z,86.82
2019-04-26T12:12:25.889Z,87.26
2019-04-26T12:13:24.899Z,87.07
2019-04-26T12:14:23.176Z,88.46
2019-04-26T12:15:29.939Z,89.61
2019-04-26T12:16:20.577Z,90.91
2019-04-26T12:17:19.249Z,90.86
2019-04-26T12:18:17.831Z,91.19
2019-04-26T12:19:18.138Z,91.39
2019-04-26T12:20:15.392Z,90.67
2019-04-26T12:21:13.998Z,91.05
2019-04-26T12:22:12.773Z,90.47
2019-04-26T12:23:13.118Z,90.38
2019-04-26T12:24:10.151Z,90.28
2019-04-26T12:25:08.784Z,90.86
2019-04-26T12:26:07.321Z,90.86
2019-04-26T12:27:05.959Z,91.53
2019-04-26T12:28:05.950Z,90.57
2019-04-26T12:29:03.256Z,90.95
2019-04-26T12:30:01.924Z,91
2019-04-26T12:31:00.533Z,92.44
2019-04-26T12:31:59.167Z,93.11
2019-04-26T12:32:57.725Z,93.35
2019-04-26T12:33:56.297Z,93.16
2019-04-26T12:34:55.118Z,92.73
2019-04-26T12:35:56.976Z,92.39
2019-04-26T12:36:52.224Z,92.73
2019-04-26T12:37:54.632Z,92.54
2019-04-26T12:38:49.597Z,92.92
2019-04-26T12:39:48.158Z,93.49
2019-04-26T12:40:47.575Z,93.11
2019-04-26T12:41:45.415Z,93.78
2019-04-26T12:42:47.269Z,92.82
2019-04-26T12:43:42.856Z,94.55
2019-04-26T12:44:41.419Z,93.59
2019-04-26T12:45:39.937Z,93.63
2019-04-26T12:46:38.648Z,93.49
2019-04-26T12:47:38.533Z,93.44
2019-04-26T12:48:35.970Z,91.82
2019-04-26T12:49:35.456Z,91.63
2019-04-26T12:50:36.613Z,91.67
2019-04-26T12:51:31.835Z,91.43
2019-04-26T12:52:30.481Z,91.67
2019-04-26T12:53:31.148Z,91.72
2019-04-26T12:54:27.790Z,91.72
2019-04-26T12:55:26.324Z,92.44
2019-04-26T12:56:26.532Z,91.28
2019-04-26T12:57:23.553Z,89.75
2019-04-26T12:58:22.163Z,90.19
2019-04-26T12:59:22.286Z,90.38
2019-04-26T13:02:05.669Z,90.76
2019-04-26T13:04:16.942Z,89.9
2019-04-26T13:06:18.534Z,88.94
2019-04-26T13:08:56.006Z,90.57
2019-04-26T13:09:52.083Z,90.38
2019-04-26T13:10:50.965Z,89.65
2019-04-26T13:14:38.632Z,90.19
2019-04-26T13:15:33.812Z,90.47
2019-04-26T13:16:32.376Z,90.76
2019-04-26T13:17:31.246Z,90.76
2019-04-26T13:18:29.565Z,90.38
2019-04-26T13:19:28.120Z,90.38
2019-04-26T13:21:27.709Z,91.24
2019-04-26T13:25:26.412Z,92.63
2019-04-26T13:26:19.571Z,93.21
2019-04-26T13:27:18.083Z,92.92
2019-04-26T13:28:20.103Z,92.73
2019-04-26T13:30:32.606Z,89.86
2019-04-26T13:31:31.091Z,90.43
2019-04-26T13:32:22.501Z,90.33
2019-04-26T13:33:23.120Z,91.1
2019-04-26T13:34:19.761Z,91.53
2019-04-26T13:35:18.443Z,91.34
2019-04-26T13:36:17.008Z,92.01